createdAt,value
2018-06-05T00:01:28.480Z,14.10
2018-06-05T00:03:57.149Z,15.07
2018-06-05T00:06:25.545Z,14.57
2018-06-05T00:08:53.918Z,13.80
2018-06-05T00:11:22.318Z,16.10
2018-06-05T00:13:50.652Z,14.07
2018-06-05T00:16:18.991Z,15.33
2018-06-05T00:18:47.323Z,14.90
2018-06-05T00:21:15.845Z,15.27
2018-06-05T00:23:44.184Z,16.43
2018-06-05T00:26:13.124Z,15.37
2018-06-05T00:28:41.504Z,16.60
2018-06-05T00:31:09.873Z,16.50
2018-06-05T00:33:38.351Z,15.50
2018-06-05T00:36:06.789Z,15.77
2018-06-05T00:38:35.169Z,16.30
2018-06-05T00:41:03.531Z,16.60
2018-06-05T00:43:31.989Z,17.30
2018-06-05T00:46:00.352Z,16.60
2018-06-05T00:48:29.410Z,18.80
2018-06-05T00:50:58.200Z,17.57
2018-06-05T00:53:26.658Z,16.63
2018-06-05T00:55:55.041Z,17.50
2018-06-05T00:58:23.420Z,17.80
2018-06-05T01:00:51.805Z,17.67
2018-06-05T01:03:20.282Z,17.10
2018-06-05T01:05:48.647Z,17.87
2018-06-05T01:08:17.431Z,16.97
2018-06-05T01:10:45.870Z,18.00
2018-06-05T01:13:14.253Z,18.30
2018-06-05T01:15:42.663Z,19.47
2018-06-05T01:18:11.102Z,18.40
2018-06-05T01:20:39.607Z,17.97
2018-06-05T01:23:07.952Z,18.50
2018-06-05T01:25:36.303Z,18.43
2018-06-05T01:28:04.673Z,18.47
2018-06-05T01:30:33.048Z,18.50
2018-06-05T01:33:01.614Z,19.00
2018-06-05T01:35:29.949Z,18.43
2018-06-05T01:37:59.145Z,19.47
2018-06-05T01:40:27.497Z,18.87
2018-06-05T01:42:55.875Z,20.50
2018-06-05T01:45:24.226Z,19.07
2018-06-05T01:47:53.109Z,19.40
2018-06-05T01:50:25.743Z,20.97
2018-06-05T01:52:54.096Z,20.80
2018-06-05T01:55:23.113Z,20.03
2018-06-05T01:57:51.513Z,19.70
2018-06-05T02:00:21.098Z,20.27
2018-06-05T02:02:49.472Z,19.67
2018-06-05T02:05:17.554Z,18.57
2018-06-05T02:07:45.868Z,19.67
2018-06-05T02:10:14.241Z,20.40
2018-06-05T02:12:42.661Z,20.97
2018-06-05T02:15:11.055Z,21.37
2018-06-05T02:17:39.407Z,22.00
2018-06-05T02:20:07.849Z,22.00
2018-06-05T02:22:36.215Z,20.50
2018-06-05T02:25:04.892Z,20.90
2018-06-05T02:27:33.270Z,21.27
2018-06-05T02:30:01.647Z,20.37
2018-06-05T02:32:34.335Z,20.47
2018-06-05T02:35:02.693Z,20.90
2018-06-05T02:37:31.067Z,21.43
2018-06-05T02:39:59.430Z,21.33
2018-06-05T02:42:27.817Z,22.80
2018-06-05T02:44:56.217Z,22.50
2018-06-05T02:47:25.124Z,20.50
2018-06-05T02:49:53.521Z,21.90
2018-06-05T02:52:21.891Z,22.10
2018-06-05T02:54:50.262Z,20.43
2018-06-05T02:57:18.638Z,20.80
2018-06-05T02:59:47.392Z,23.13
2018-06-05T03:02:16.203Z,21.27
2018-06-05T03:04:44.571Z,22.93
2018-06-05T03:07:12.964Z,22.20
2018-06-05T03:09:41.374Z,22.50
2018-06-05T03:12:10.523Z,24.03
2018-06-05T03:14:38.924Z,21.57
2018-06-05T03:17:07.275Z,23.37
2018-06-05T03:19:35.641Z,22.63
2018-06-05T03:22:04.252Z,22.90
2018-06-05T03:24:32.600Z,23.50
2018-06-05T03:27:00.962Z,23.00
2018-06-05T03:29:29.351Z,23.10
2018-06-05T03:31:57.780Z,23.90
2018-06-05T03:34:33.167Z,21.97
2018-06-05T03:37:01.587Z,24.37
2018-06-05T03:39:29.969Z,23.97
2018-06-05T03:41:58.351Z,23.73
2018-06-05T03:44:26.766Z,24.07
2018-06-05T03:46:55.217Z,23.10
2018-06-05T03:49:23.638Z,22.60
2018-06-05T03:51:51.990Z,24.90
2018-06-05T03:54:20.414Z,24.23
2018-06-05T03:56:48.786Z,24.20
2018-06-05T03:59:17.169Z,24.00
2018-06-05T04:01:45.535Z,23.90
2018-06-05T04:04:13.965Z,24.57
2018-06-05T04:06:42.325Z,24.23
2018-06-05T04:09:10.732Z,23.40
2018-06-05T04:11:39.118Z,24.73
2018-06-05T04:14:07.508Z,24.83
2018-06-05T04:16:35.854Z,25.20
2018-06-05T04:19:04.219Z,24.73
2018-06-05T04:21:32.610Z,23.13
2018-06-05T04:24:00.976Z,25.17
2018-06-05T04:26:29.652Z,24.53
2018-06-05T04:28:58.011Z,24.50
2018-06-05T04:31:28.309Z,25.20
2018-06-05T04:33:57.547Z,26.07
2018-06-05T04:36:25.952Z,25.03
2018-06-05T04:38:54.281Z,24.67
2018-06-05T04:41:22.651Z,25.77
2018-06-05T04:43:51.038Z,24.20
2018-06-05T04:46:19.459Z,26.07
2018-06-05T04:48:47.822Z,26.43
2018-06-05T04:51:16.154Z,25.43
2018-06-05T04:53:44.495Z,23.97
2018-06-05T04:56:13.058Z,25.97
2018-06-05T04:58:41.412Z,27.00
2018-06-05T05:01:09.769Z,25.27
2018-06-05T05:03:38.226Z,23.77
2018-06-05T05:06:06.569Z,24.27
2018-06-05T05:08:35.320Z,24.17
2018-06-05T05:11:04.021Z,24.40
2018-06-05T05:13:32.374Z,25.20
2018-06-05T05:16:00.710Z,25.20
2018-06-05T05:18:31.240Z,25.97
2018-06-05T05:21:00.036Z,26.43
2018-06-05T05:23:28.422Z,25.33
2018-06-05T05:25:56.757Z,25.03
2018-06-05T05:28:25.181Z,27.07
2018-06-05T05:30:53.543Z,24.73
2018-06-05T05:33:21.897Z,25.00
2018-06-05T05:35:50.276Z,28.37
2018-06-05T05:38:18.620Z,24.70
2018-06-05T05:40:46.997Z,25.70
2018-06-05T05:43:15.434Z,23.67
2018-06-05T05:45:43.807Z,26.40
2018-06-05T05:48:12.129Z,24.87
2018-06-05T05:50:40.518Z,26.90
2018-06-05T05:53:08.912Z,26.17
2018-06-05T05:55:41.327Z,23.30
2018-06-05T05:58:09.407Z,26.17
2018-06-05T06:00:37.831Z,25.83
2018-06-05T06:03:06.174Z,25.30
2018-06-05T06:05:34.540Z,25.87
2018-06-05T06:08:02.993Z,24.27
2018-06-05T06:10:35.792Z,23.27
2018-06-05T06:13:04.258Z,24.50
2018-06-05T06:15:33.123Z,24.03
2018-06-05T06:18:01.207Z,23.70
2018-06-05T06:20:30.047Z,24.00
2018-06-05T06:22:58.431Z,23.83
2018-06-05T06:25:26.858Z,24.30
2018-06-05T06:27:55.258Z,23.03
2018-06-05T06:30:23.779Z,23.67
2018-06-05T06:32:52.726Z,24.63
2018-06-05T06:35:21.122Z,24.37
2018-06-05T06:37:53.879Z,26.17
2018-06-05T06:40:22.337Z,25.93
2018-06-05T06:42:50.721Z,24.10
2018-06-05T06:45:23.426Z,24.50
2018-06-05T06:47:51.835Z,24.00
2018-06-05T06:50:20.263Z,22.70
2018-06-05T06:52:48.844Z,24.93
2018-06-05T06:55:17.348Z,23.50
2018-06-05T06:57:46.966Z,24.03
2018-06-05T07:00:15.717Z,24.87
2018-06-05T07:02:44.659Z,23.17
2018-06-05T07:05:13.019Z,24.63
2018-06-05T07:07:41.435Z,24.97
2018-06-05T07:10:09.904Z,24.33
2018-06-05T07:12:38.337Z,23.10
2018-06-05T07:15:06.775Z,23.33
2018-06-05T07:17:35.319Z,23.00
2018-06-05T07:20:03.785Z,23.97
2018-06-05T07:22:32.749Z,25.57
2018-06-05T07:25:01.253Z,24.47
2018-06-05T07:27:30.202Z,24.70
2018-06-05T07:29:58.625Z,24.97
2018-06-05T07:32:26.966Z,24.53
2018-06-05T07:34:55.965Z,26.60
2018-06-05T07:37:24.559Z,25.10
2018-06-05T07:39:52.980Z,24.70
2018-06-05T07:42:23.513Z,24.50
2018-06-05T07:44:52.046Z,23.50
2018-06-05T07:47:20.473Z,24.80
2018-06-05T07:49:49.599Z,24.23
2018-06-05T07:52:18.266Z,25.00
2018-06-05T07:54:46.858Z,22.33
2018-06-05T07:57:45.054Z,24.50
2018-06-05T08:00:35.353Z,24.70
2018-06-05T08:03:04.917Z,24.03
2018-06-05T08:05:34.367Z,25.10
2018-06-05T08:08:03.991Z,23.10
2018-06-05T08:10:32.332Z,24.57
2018-06-05T08:13:00.675Z,23.10
2018-06-05T08:15:29.369Z,23.37
2018-06-05T08:17:58.110Z,21.70
2018-06-05T08:20:26.495Z,23.63
2018-06-05T08:22:56.082Z,22.90
2018-06-05T08:25:24.491Z,22.70
2018-06-05T08:27:52.941Z,21.73
2018-06-05T08:30:21.332Z,21.63
2018-06-05T08:32:50.383Z,20.37
2018-06-05T08:35:18.755Z,20.60
2018-06-05T08:37:47.126Z,19.70
2018-06-05T08:40:15.510Z,22.53
2018-06-05T08:42:43.840Z,23.40
2018-06-05T08:45:12.290Z,21.63
2018-06-05T08:47:40.574Z,22.83
2018-06-05T08:50:08.994Z,23.37
2018-06-05T08:52:37.356Z,22.63
2018-06-05T08:55:06.425Z,20.90
2018-06-05T08:57:34.772Z,21.83
2018-06-05T09:00:03.207Z,20.90
2018-06-05T09:02:31.586Z,19.93
2018-06-05T09:04:59.967Z,21.37
2018-06-05T09:07:28.370Z,20.07
2018-06-05T09:09:56.765Z,18.97
2018-06-05T09:12:25.145Z,19.37
2018-06-05T09:14:53.588Z,18.37
2018-06-05T09:17:21.991Z,18.63
2018-06-05T09:19:50.380Z,19.50
2018-06-05T09:22:18.829Z,19.77
2018-06-05T09:24:47.215Z,19.13
2018-06-05T09:27:15.602Z,18.03
2018-06-05T09:29:44.019Z,17.90
2018-06-05T09:32:12.391Z,18.57
2018-06-05T09:34:40.712Z,18.43
2018-06-05T09:37:09.107Z,18.00
2018-06-05T09:39:37.551Z,16.50
2018-06-05T09:42:05.846Z,18.07
2018-06-05T09:44:34.327Z,19.03
2018-06-05T09:47:02.753Z,15.60
2018-06-05T09:49:31.129Z,17.37
2018-06-05T09:51:59.583Z,18.90
2018-06-05T09:54:27.983Z,17.30
2018-06-05T09:56:57.427Z,16.77
2018-06-05T09:59:25.798Z,16.90
2018-06-05T10:01:54.186Z,15.57
2018-06-05T10:04:22.539Z,17.60
2018-06-05T10:06:50.941Z,16.60
2018-06-05T10:09:19.287Z,17.83
2018-06-05T10:11:47.651Z,15.87
2018-06-05T10:14:16.045Z,15.33
2018-06-05T10:16:44.367Z,15.97
2018-06-05T10:19:12.721Z,17.50
2018-06-05T10:21:41.142Z,15.50
2018-06-05T10:24:09.471Z,14.87
2018-06-05T10:26:37.835Z,14.63
2018-06-05T10:29:06.245Z,14.27
2018-06-05T10:31:34.560Z,17.23
2018-06-05T10:34:02.995Z,14.20
2018-06-05T10:36:31.389Z,15.07
2018-06-05T10:38:59.745Z,14.50
2018-06-05T10:41:28.039Z,14.20
2018-06-05T10:43:56.414Z,14.30
2018-06-05T10:46:24.717Z,14.40
2018-06-05T10:48:53.080Z,14.77
2018-06-05T10:51:21.423Z,14.13
2018-06-05T10:53:49.477Z,14.80
2018-06-05T10:56:17.523Z,14.00
2018-06-05T10:58:45.918Z,13.57
2018-06-05T11:01:14.246Z,14.53
2018-06-05T11:03:42.815Z,14.40
2018-06-05T11:06:11.220Z,14.20
2018-06-05T11:08:41.611Z,13.40
2018-06-05T11:11:10.002Z,12.90
2018-06-05T11:13:38.341Z,15.07
2018-06-05T11:16:06.695Z,15.30
2018-06-05T11:18:35.035Z,13.97
2018-06-05T11:21:03.466Z,13.20
2018-06-05T11:23:31.837Z,12.17
2018-06-05T11:26:00.290Z,13.47
2018-06-05T11:28:28.641Z,12.90
2018-06-05T11:30:57.051Z,12.30
2018-06-05T11:33:25.685Z,11.37
2018-06-05T11:35:54.085Z,11.00
2018-06-05T11:38:22.462Z,10.80
2018-06-05T11:40:50.821Z,10.43
2018-06-05T11:43:19.240Z,10.73
2018-06-05T11:45:47.626Z,12.30
2018-06-05T11:48:16.001Z,9.90
2018-06-05T11:50:44.395Z,9.40
2018-06-05T11:53:12.818Z,9.63
2018-06-05T11:55:41.191Z,9.13
2018-06-05T11:58:09.642Z,8.33
2018-06-05T12:00:37.972Z,8.37
2018-06-05T12:03:06.340Z,8.07
2018-06-05T12:05:34.709Z,8.60
2018-06-05T12:08:03.082Z,7.70
2018-06-05T12:10:31.471Z,7.97
2018-06-05T12:12:59.529Z,7.63
2018-06-05T12:15:27.941Z,7.33
2018-06-05T12:17:56.274Z,8.20
2018-06-05T12:20:28.962Z,8.37
2018-06-05T12:22:57.604Z,8.10
2018-06-05T12:25:25.955Z,7.57
2018-06-05T12:27:54.312Z,7.30
2018-06-05T12:30:22.607Z,7.03
2018-06-05T12:32:50.986Z,7.10
2018-06-05T12:35:19.618Z,8.20
2018-06-05T12:37:48.005Z,7.03
2018-06-05T12:40:16.347Z,6.83
2018-06-05T12:42:44.688Z,7.93
2018-06-05T12:45:13.487Z,7.43
2018-06-05T12:47:41.901Z,6.60
2018-06-05T12:50:10.975Z,7.57
2018-06-05T12:52:39.372Z,6.60
2018-06-05T12:55:07.742Z,7.40
2018-06-05T12:57:36.507Z,7.30
2018-06-05T13:00:05.197Z,7.30
2018-06-05T13:02:33.522Z,8.03
2018-06-05T13:05:01.959Z,6.77
2018-06-05T13:07:30.274Z,7.30
2018-06-05T13:09:58.907Z,6.67
2018-06-05T13:12:27.287Z,6.90
2018-06-05T13:14:55.655Z,6.70
2018-06-05T13:17:24.007Z,7.27
2018-06-05T13:19:52.426Z,7.00
2018-06-05T13:22:20.778Z,6.80
2018-06-05T13:24:49.162Z,7.27
2018-06-05T13:27:17.726Z,7.10
2018-06-05T13:29:46.082Z,6.23
2018-06-05T13:32:14.432Z,6.70
2018-06-05T13:34:42.775Z,5.93
2018-06-05T13:37:11.210Z,6.53
2018-06-05T13:39:39.564Z,6.20
2018-06-05T13:42:07.933Z,5.90
2018-06-05T13:44:36.334Z,6.23
2018-06-05T13:47:04.747Z,6.57
2018-06-05T13:49:33.078Z,7.20
2018-06-05T13:52:01.508Z,6.60
2018-06-05T13:54:29.546Z,6.33
2018-06-05T13:56:57.932Z,6.03
2018-06-05T13:59:26.364Z,6.50
2018-06-05T14:01:54.695Z,6.50
2018-06-05T14:04:23.050Z,6.50
2018-06-05T14:06:51.419Z,5.60
2018-06-05T14:09:19.868Z,6.27
2018-06-05T14:11:48.159Z,5.53
2018-06-05T14:14:16.497Z,6.13
2018-06-05T14:16:44.541Z,6.70
2018-06-05T14:19:12.887Z,6.50
2018-06-05T14:21:41.270Z,6.67
2018-06-05T14:24:09.715Z,6.27
2018-06-05T14:26:38.096Z,7.10
2018-06-05T14:29:06.451Z,6.60
2018-06-05T14:31:34.827Z,6.80
2018-06-05T14:34:03.234Z,6.37
2018-06-05T14:36:31.602Z,6.60
2018-06-05T14:39:00.152Z,6.73
2018-06-05T14:41:28.513Z,6.00
2018-06-05T14:43:56.926Z,6.50
2018-06-05T14:46:25.271Z,6.83
2018-06-05T14:48:53.330Z,6.67
2018-06-05T14:51:21.451Z,6.27
2018-06-05T14:53:49.807Z,7.07
2018-06-05T14:56:18.240Z,6.43
2018-06-05T14:58:46.555Z,6.30
2018-06-05T15:01:14.886Z,6.83
2018-06-05T15:03:43.226Z,5.53
2018-06-05T15:06:11.740Z,6.03
2018-06-05T15:08:40.071Z,6.57
2018-06-05T15:11:08.425Z,6.10
2018-06-05T15:13:36.839Z,6.27
2018-06-05T15:16:05.262Z,6.57
2018-06-05T15:18:33.625Z,6.50
2018-06-05T15:21:02.029Z,6.00
2018-06-05T15:23:30.061Z,7.80
2018-06-05T15:25:58.444Z,5.97
2018-06-05T15:28:26.845Z,6.97
2018-06-05T15:30:55.266Z,5.60
2018-06-05T15:33:23.606Z,5.90
2018-06-05T15:35:51.978Z,5.13
2018-06-05T15:38:20.345Z,6.30
2018-06-05T15:40:48.734Z,5.90
2018-06-05T15:43:17.080Z,5.87
2018-06-05T15:45:45.135Z,6.53
2018-06-05T15:48:13.515Z,6.40
2018-06-05T15:50:41.893Z,6.07
2018-06-05T15:53:10.293Z,5.80
2018-06-05T15:55:38.647Z,5.50
2018-06-05T15:58:06.743Z,5.63
2018-06-05T16:00:35.366Z,4.47
2018-06-05T16:03:03.744Z,4.90
2018-06-05T16:05:32.266Z,4.07
2018-06-05T16:08:00.339Z,5.17
2018-06-05T16:10:28.724Z,4.90
2018-06-05T16:12:57.112Z,4.27
2018-06-05T16:15:25.507Z,3.90
2018-06-05T16:17:53.884Z,4.23
2018-06-05T16:20:22.272Z,5.10
2018-06-05T16:22:55.381Z,5.23
2018-06-05T16:25:23.502Z,5.43
2018-06-05T16:27:51.870Z,4.90
2018-06-05T16:30:20.376Z,4.90
2018-06-05T16:32:49.341Z,5.27
2018-06-05T16:35:17.698Z,4.87
2018-06-05T16:37:46.020Z,4.33
2018-06-05T16:40:14.406Z,4.07
2018-06-05T16:42:43.081Z,4.80
2018-06-05T16:45:11.580Z,5.03
2018-06-05T16:47:40.446Z,5.03
2018-06-05T16:50:11.594Z,4.20
2018-06-05T16:52:40.235Z,4.70
2018-06-05T16:55:08.886Z,5.43
2018-06-05T16:57:38.363Z,5.07
2018-06-05T17:00:08.356Z,5.60
2018-06-05T17:02:36.735Z,5.00
2018-06-05T17:05:05.210Z,4.77
2018-06-05T17:07:34.828Z,4.57
2018-06-05T17:10:03.263Z,5.23
2018-06-05T17:12:32.682Z,5.20
2018-06-05T17:15:01.039Z,10.23
2018-06-05T17:17:29.462Z,6.30
2018-06-05T17:19:57.511Z,6.50
2018-06-05T17:22:25.907Z,6.73
2018-06-05T17:24:54.747Z,5.67
2018-06-05T17:27:37.136Z,5.90
2018-06-05T17:30:10.499Z,5.20
2018-06-05T17:32:38.611Z,5.77
2018-06-05T17:35:06.967Z,6.50
2018-06-05T17:37:56.403Z,5.50
2018-06-05T17:40:26.263Z,5.43
2018-06-05T17:42:55.662Z,6.17
2018-06-05T17:45:24.001Z,6.07
2018-06-05T17:47:52.023Z,7.10
2018-06-05T17:50:20.405Z,7.10
2018-06-05T17:52:48.762Z,6.80
2018-06-05T17:55:17.145Z,7.93
2018-06-05T17:57:45.615Z,7.03
2018-06-05T18:00:13.958Z,8.07
2018-06-05T18:02:42.376Z,9.20
2018-06-05T18:05:10.866Z,9.87
2018-06-05T18:07:39.267Z,10.37
2018-06-05T18:10:07.396Z,9.50
2018-06-05T18:12:35.971Z,10.47
2018-06-05T18:15:05.400Z,11.20
2018-06-05T18:17:33.791Z,12.03
2018-06-05T18:20:02.318Z,12.57
2018-06-05T18:22:30.869Z,11.70
2018-06-05T18:24:59.203Z,12.27
2018-06-05T18:27:27.849Z,12.33
2018-06-05T18:29:56.611Z,13.00
2018-06-05T18:32:25.246Z,12.80
2018-06-05T18:34:53.699Z,11.50
2018-06-05T18:37:22.189Z,12.40
2018-06-05T18:39:50.518Z,12.53
2018-06-05T18:42:18.954Z,11.00
2018-06-05T18:44:47.395Z,11.07
2018-06-05T18:47:15.781Z,11.80
2018-06-05T18:49:44.602Z,11.93
2018-06-05T18:52:12.963Z,11.40
2018-06-05T18:54:41.424Z,11.30
2018-06-05T18:57:09.890Z,11.47
2018-06-05T18:59:38.326Z,11.53
2018-06-05T19:02:06.710Z,11.10
2018-06-05T19:04:49.244Z,10.83
2018-06-05T19:07:17.783Z,12.10
2018-06-05T19:09:46.375Z,13.10
2018-06-05T19:12:14.509Z,11.50
2018-06-05T19:14:47.105Z,11.37
2018-06-05T19:17:15.486Z,10.93
2018-06-05T19:19:43.618Z,11.43
2018-06-05T19:22:11.685Z,11.33
2018-06-05T19:24:40.082Z,10.27
2018-06-05T19:27:08.509Z,11.10
2018-06-05T19:29:36.959Z,11.77
2018-06-05T19:32:05.273Z,11.20
2018-06-05T19:34:33.630Z,11.80
2018-06-05T19:46:50.300Z,12.20
2018-06-05T19:49:19.401Z,13.40
2018-06-05T19:51:48.615Z,12.33
2018-06-05T19:54:17.997Z,12.60
2018-06-05T19:56:47.108Z,12.57
2018-06-05T20:12:16.236Z,14.27
2018-06-05T20:14:45.237Z,13.70
2018-06-05T20:17:14.852Z,15.80
2018-06-05T20:19:43.983Z,15.13
2018-06-05T20:22:13.290Z,15.00
2018-06-05T20:24:42.867Z,14.63
2018-06-05T20:27:14.165Z,16.50
2018-06-05T20:39:28.102Z,16.77
2018-06-05T20:41:56.875Z,16.30
2018-06-05T20:44:25.756Z,18.93
2018-06-05T20:46:54.292Z,17.40
2018-06-05T20:49:22.405Z,14.70
2018-06-05T20:51:50.842Z,17.83
2018-06-05T20:54:21.006Z,16.97
2018-06-05T20:56:49.600Z,17.23
2018-06-05T20:59:18.344Z,17.77
2018-06-05T21:01:47.463Z,16.13
2018-06-05T21:04:18.504Z,17.77
2018-06-05T21:06:47.708Z,15.97
2018-06-05T21:09:16.624Z,18.20
2018-06-05T21:11:46.580Z,16.20
2018-06-05T21:14:19.632Z,17.03
2018-06-05T21:16:49.503Z,17.17
2018-06-05T21:19:24.060Z,17.37
2018-06-05T21:21:53.958Z,17.63
2018-06-05T21:24:24.705Z,16.93
2018-06-05T21:36:42.786Z,16.73
2018-06-05T21:39:10.965Z,16.80
2018-06-05T21:41:39.362Z,17.30
2018-06-05T21:44:07.750Z,16.97
2018-06-05T21:46:36.162Z,16.70
2018-06-05T21:49:04.556Z,17.17
2018-06-05T21:51:32.929Z,16.63
2018-06-05T21:54:01.364Z,16.83
2018-06-05T21:56:29.686Z,17.73
2018-06-05T21:58:58.036Z,18.83
2018-06-05T22:01:26.395Z,17.10
2018-06-05T22:04:02.676Z,16.30
2018-06-05T22:06:31.087Z,16.77
2018-06-05T22:08:59.567Z,16.10
2018-06-05T22:11:28.279Z,16.97
2018-06-05T22:13:56.885Z,17.63
2018-06-05T22:16:29.806Z,17.30
2018-06-05T22:18:58.977Z,18.40
2018-06-05T22:21:27.632Z,16.23
2018-06-05T22:23:56.269Z,16.43
2018-06-05T22:26:24.758Z,16.27
2018-06-05T22:28:53.527Z,16.30
2018-06-05T22:31:22.129Z,15.53
2018-06-05T22:33:50.575Z,17.40
2018-06-05T22:36:19.172Z,18.50
2018-06-05T22:38:47.648Z,17.63
2018-06-05T22:41:16.129Z,16.70
2018-06-05T22:43:44.758Z,17.10
2018-06-05T22:46:13.340Z,16.67
2018-06-05T22:48:41.765Z,16.53
2018-06-05T22:51:10.218Z,16.33
2018-06-05T22:53:38.792Z,16.40
2018-06-05T22:56:07.314Z,15.47
2018-06-05T22:58:36.537Z,17.30
2018-06-05T23:01:05.017Z,17.27
2018-06-05T23:03:33.527Z,15.87
2018-06-05T23:06:02.439Z,16.33
2018-06-05T23:08:30.916Z,15.80
2018-06-05T23:10:59.551Z,16.30
2018-06-05T23:13:27.622Z,16.33
2018-06-05T23:15:56.019Z,15.40
2018-06-05T23:18:24.455Z,15.33
2018-06-05T23:20:52.990Z,16.13
2018-06-05T23:23:21.396Z,16.17
2018-06-05T23:25:49.761Z,16.57
2018-06-05T23:28:18.281Z,16.87
2018-06-05T23:30:46.706Z,16.43
2018-06-05T23:33:15.135Z,17.57
2018-06-05T23:35:43.571Z,16.40
2018-06-05T23:38:11.974Z,17.00
2018-06-05T23:40:40.377Z,15.40
2018-06-05T23:43:08.822Z,15.47
2018-06-05T23:45:37.285Z,18.00
2018-06-05T23:48:05.686Z,15.63
2018-06-05T23:50:34.057Z,16.67
2018-06-05T23:53:02.439Z,18.67
2018-06-05T23:55:30.830Z,16.53
2018-06-05T23:57:59.247Z,16.10
